Naikai2 — JD2433 — position and weather

sailwx.info

Track history (hours):
 
Tides and Currents Weather Stations Pressure Air Temp Water Temp Dewpoint Dewpoint Depression Visibility Wind Speed Wind Dir Waves Ship Positions

Naikai2

Last reported at 2017-May-25 03:01 UTC. Time now 2017-May-25 05:15 UTC.
Position N 34°39' E 135°10'.

Length 28 m; draft 2.2 m.

Type: Other ship. MMSI: 431000283.

Date/timePositionNaut miles runAvg speedWind from/ knotsBaromVisibWave heightAir tempDewpointWater temp
2017-May-25 03:01N 34°39' E 135°10'010.5
2017-May-25 03:00N 34°39' E 135°10'1 2.8
2017-May-25 02:30N 34°40' E 135°11'510.2
2017-May-25 02:00N 34°36' E 135°07'5 9.0
2017-May-25 01:29N 34°37' E 135°02'4 5.4
2017-May-25 00:48N 34°35' E 134°57'0 0.0
2017-May-25 00:30N 34°35' E 134°57'2 3.1
2017-May-24 23:54N 34°37' E 134°58'410.3
2017-May-24 23:30N 34°36' E 135°03'5 9.6
2017-May-24 23:00N 34°35' E 135°08'3 5.4
2017-May-24 22:30N 34°34' E 135°11'510.0
2017-May-24 22:00N 34°39' E 135°10'1 0.4
2017-May-24 20:02N 34°38' E 135°10'013.4
2017-May-24 20:00N 34°38' E 135°09'713.4
2017-May-24 19:28N 34°38' E 135°00'1 2.3
2017-May-24 19:00N 34°38' E 134°59'5 9.9
2017-May-24 18:31N 34°36' E 135°05'3 5.5
2017-May-24 18:00N 34°36' E 135°08'3 6.8
2017-May-24 17:30N 34°39' E 135°10'0 0.0
2017-May-24 17:00N 34°39' E 135°10'1 0.1
2017-May-24 06:24N 34°38' E 135°10'614.5
2017-May-24 06:00N 34°33' E 135°07'714.0
2017-May-24 05:30N 34°27' E 135°03'2 0.9
2017-May-24 03:51N 34°26' E 135°02'515.2
2017-May-24 03:30N 34°30' E 135°05'4 7.8
2017-May-24 02:59N 34°34' E 135°06'5 0.2
2017-May-23 01:29N 34°37' E 135°01'510.1
2017-May-23 00:59N 34°35' E 135°06'3 5.8
2017-May-23 00:30N 34°32' E 135°08'4 9.0
2017-May-23 00:00N 34°28' E 135°06'1410.9
2017-May-22 22:44N 34°15' E 134°59'210.3
2017-May-22 22:30N 34°13' E 134°59'10 8.1
2017-May-22 21:17N 34°23' E 135°00'413.8
2017-May-22 21:00N 34°26' E 135°02'714.4
2017-May-22 20:30N 34°32' E 135°07'713.3
2017-May-22 20:00N 34°38' E 135°10'1 0.0
2017-May-21 23:55N 34°39' E 135°10'1 3.3
2017-May-21 23:30N 34°40' E 135°11'1 2.5
2017-May-21 23:00N 34°39' E 135°10'  
2017-May-19 10:05N 34°38' E 135°09'114.9
2017-May-19 10:00N 34°37' E 135°09'714.5
2017-May-19 09:30N 34°30' E 135°06'814.9
2017-May-19 08:59N 34°23' E 135°02'816.4
2017-May-19 08:30N 34°16' E 134°59'3 5.0
2017-May-19 07:55N 34°19' E 134°59'613.4
2017-May-19 07:26N 34°25' E 135°01'714.0
2017-May-19 06:58N 34°31' E 135°04'4 8.5
2017-May-19 06:31N 34°34' E 135°06'3 6.6
2017-May-19 06:00N 34°32' E 135°03'6 9.7
2017-May-19 05:22N 34°27' E 134°59'4 1.8
2017-May-19 03:22N 34°23' E 135°00'514.3
2017-May-19 02:59N 34°27' E 135°04'611.6
2017-May-19 02:30N 34°33' E 135°07'19 2.0
2017-May-18 17:02N 34°41' E 134°46'116.1
2017-May-18 17:00N 34°41' E 134°47'815.8
2017-May-18 16:30N 34°37' E 134°55'611.9
2017-May-18 16:00N 34°37' E 135°02'4 8.7
2017-May-18 15:31N 34°35' E 135°07'5 9.5
2017-May-18 15:00N 34°39' E 135°10'0 0.1
2017-May-18 14:01N 34°39' E 135°10'0 0.0
2017-May-18 04:45N 34°39' E 135°10'1 5.5
2017-May-18 04:31N 34°40' E 135°11'1 1.5
2017-May-18 04:00N 34°40' E 135°11'713.0
2017-May-18 03:27N 34°37' E 135°03'5 1.3
2017-May-17 23:21N 34°37' E 134°57'411.0
2017-May-17 23:01N 34°37' E 135°01'510.5
2017-May-17 22:30N 34°35' E 135°07'3 6.0
2017-May-17 22:00N 34°32' E 135°08'610.9
2017-May-17 21:29N 34°27' E 135°05'1311.9
2017-May-17 20:25N 34°15' E 134°59'510.3
2017-May-17 19:59N 34°11' E 134°58'17 2.2
2017-May-17 12:23N 34°28' E 134°60'514.5
2017-May-17 12:00N 34°32' E 135°03'510.8
2017-May-17 11:31N 34°37' E 135°01'3 5.6
2017-May-17 10:57N 34°36' E 134°58'4 8.4
2017-May-17 10:30N 34°38' E 135°02'612.5
2017-May-17 10:00N 34°38' E 135°09'1 2.5
2017-May-17 09:30N 34°39' E 135°10'0 0.0
2017-May-17 09:00N 34°39' E 135°10'0 0.0
2017-May-17 08:30N 34°39' E 135°10'0 0.0
2017-May-17 08:00N 34°39' E 135°10'0 0.0
2017-May-17 07:30N 34°39' E 135°10'0 0.0
2017-May-17 07:00N 34°39' E 135°10'1 0.1
2017-May-16 09:53N 34°38' E 135°10'614.6
2017-May-16 09:30N 34°32' E 135°07'714.3
2017-May-16 08:59N 34°26' E 135°04'1 0.6
2017-May-16 07:10N 34°26' E 135°03'214.8
2017-May-16 07:00N 34°29' E 135°05'510.4
2017-May-16 06:29N 34°34' E 135°07'  
Track history (hours):
 
Tides and Currents Weather Stations Pressure Air Temp Water Temp Dewpoint Dewpoint Depression Visibility Wind Speed Wind Dir Waves Ship Positions

Naikai2

Last reported at 2017-May-25 03:01 UTC. Time now 2017-May-25 05:15 UTC.
Position N 34°39' E 135°10'.

Length 28 m; draft 2.2 m.

Type: Other ship. MMSI: 431000283.

Date/timePositionNaut miles runAvg speedWind from/ knotsBaromVisibWave heightAir tempDewpointWater temp
2017-May-25 03:01N 34°39' E 135°10'010.5
2017-May-25 03:00N 34°39' E 135°10'1 2.8
2017-May-25 02:30N 34°40' E 135°11'510.2
2017-May-25 02:00N 34°36' E 135°07'5 9.0
2017-May-25 01:29N 34°37' E 135°02'4 5.4
2017-May-25 00:48N 34°35' E 134°57'0 0.0
2017-May-25 00:30N 34°35' E 134°57'2 3.1
2017-May-24 23:54N 34°37' E 134°58'410.3
2017-May-24 23:30N 34°36' E 135°03'5 9.6
2017-May-24 23:00N 34°35' E 135°08'3 5.4
2017-May-24 22:30N 34°34' E 135°11'510.0
2017-May-24 22:00N 34°39' E 135°10'1 0.4
2017-May-24 20:02N 34°38' E 135°10'013.4
2017-May-24 20:00N 34°38' E 135°09'713.4
2017-May-24 19:28N 34°38' E 135°00'1 2.3
2017-May-24 19:00N 34°38' E 134°59'5 9.9
2017-May-24 18:31N 34°36' E 135°05'3 5.5
2017-May-24 18:00N 34°36' E 135°08'3 6.8
2017-May-24 17:30N 34°39' E 135°10'0 0.0
2017-May-24 17:00N 34°39' E 135°10'1 0.1
2017-May-24 06:24N 34°38' E 135°10'614.5
2017-May-24 06:00N 34°33' E 135°07'714.0
2017-May-24 05:30N 34°27' E 135°03'2 0.9
2017-May-24 03:51N 34°26' E 135°02'515.2
2017-May-24 03:30N 34°30' E 135°05'4 7.8
2017-May-24 02:59N 34°34' E 135°06'5 0.2
2017-May-23 01:29N 34°37' E 135°01'510.1
2017-May-23 00:59N 34°35' E 135°06'3 5.8
2017-May-23 00:30N 34°32' E 135°08'4 9.0
2017-May-23 00:00N 34°28' E 135°06'1410.9
2017-May-22 22:44N 34°15' E 134°59'210.3
2017-May-22 22:30N 34°13' E 134°59'10 8.1
2017-May-22 21:17N 34°23' E 135°00'413.8
2017-May-22 21:00N 34°26' E 135°02'714.4
2017-May-22 20:30N 34°32' E 135°07'713.3
2017-May-22 20:00N 34°38' E 135°10'1 0.0
2017-May-21 23:55N 34°39' E 135°10'1 3.3
2017-May-21 23:30N 34°40' E 135°11'1 2.5
2017-May-21 23:00N 34°39' E 135°10'  
2017-May-19 10:05N 34°38' E 135°09'114.9
2017-May-19 10:00N 34°37' E 135°09'714.5
2017-May-19 09:30N 34°30' E 135°06'814.9
2017-May-19 08:59N 34°23' E 135°02'816.4
2017-May-19 08:30N 34°16' E 134°59'3 5.0
2017-May-19 07:55N 34°19' E 134°59'613.4
2017-May-19 07:26N 34°25' E 135°01'714.0
2017-May-19 06:58N 34°31' E 135°04'4 8.5
2017-May-19 06:31N 34°34' E 135°06'3 6.6
2017-May-19 06:00N 34°32' E 135°03'6 9.7
2017-May-19 05:22N 34°27' E 134°59'4 1.8
2017-May-19 03:22N 34°23' E 135°00'514.3
2017-May-19 02:59N 34°27' E 135°04'611.6
2017-May-19 02:30N 34°33' E 135°07'19 2.0
2017-May-18 17:02N 34°41' E 134°46'116.1
2017-May-18 17:00N 34°41' E 134°47'815.8
2017-May-18 16:30N 34°37' E 134°55'611.9
2017-May-18 16:00N 34°37' E 135°02'4 8.7
2017-May-18 15:31N 34°35' E 135°07'5 9.5
2017-May-18 15:00N 34°39' E 135°10'0 0.1
2017-May-18 14:01N 34°39' E 135°10'0 0.0
2017-May-18 04:45N 34°39' E 135°10'1 5.5
2017-May-18 04:31N 34°40' E 135°11'1 1.5
2017-May-18 04:00N 34°40' E 135°11'713.0
2017-May-18 03:27N 34°37' E 135°03'5 1.3
2017-May-17 23:21N 34°37' E 134°57'411.0
2017-May-17 23:01N 34°37' E 135°01'510.5
2017-May-17 22:30N 34°35' E 135°07'3 6.0
2017-May-17 22:00N 34°32' E 135°08'610.9
2017-May-17 21:29N 34°27' E 135°05'1311.9
2017-May-17 20:25N 34°15' E 134°59'510.3
2017-May-17 19:59N 34°11' E 134°58'17 2.2
2017-May-17 12:23N 34°28' E 134°60'514.5
2017-May-17 12:00N 34°32' E 135°03'510.8
2017-May-17 11:31N 34°37' E 135°01'3 5.6
2017-May-17 10:57N 34°36' E 134°58'4 8.4
2017-May-17 10:30N 34°38' E 135°02'612.5
2017-May-17 10:00N 34°38' E 135°09'1 2.5
2017-May-17 09:30N 34°39' E 135°10'0 0.0
2017-May-17 09:00N 34°39' E 135°10'0 0.0
2017-May-17 08:30N 34°39' E 135°10'0 0.0
2017-May-17 08:00N 34°39' E 135°10'0 0.0
2017-May-17 07:30N 34°39' E 135°10'0 0.0
2017-May-17 07:00N 34°39' E 135°10'1 0.1
2017-May-16 09:53N 34°38' E 135°10'614.6
2017-May-16 09:30N 34°32' E 135°07'714.3
2017-May-16 08:59N 34°26' E 135°04'1 0.6
2017-May-16 07:10N 34°26' E 135°03'214.8
2017-May-16 07:00N 34°29' E 135°05'510.4
2017-May-16 06:29N 34°34' E 135°07'  

Dump ship's entire track history